Time;durP1;ratioP1;P1;durP2;ratioP2;P2;SDS_P1;SDS_P2;PMS_P1;PMS_P2;Temp;Humidity;BMP_temperature;BMP_pressure;BME280_temperature;BME280_humidity;BME280_pressure;Samples;Min_cycle;Max_cycle;Signal;HPM_P1;HPM_P2
2021/08/16 00:02:10;;;;;;;11.77;10.97;;;25.30;99.90;;;;;;2611145;54;20469;-59
2021/08/16 00:04:39;;;;;;;12.00;11.20;;;25.30;99.90;;;;;;2611747;54;20411;-57
2021/08/16 00:07:08;;;;;;;12.70;11.80;;;25.30;99.90;;;;;;2610534;54;20413;-58
2021/08/16 00:09:40;;;;;;;12.23;11.43;;;25.30;99.90;;;;;;2610144;54;20922;-59
2021/08/16 00:12:09;;;;;;;11.33;10.63;;;25.30;99.90;;;;;;2610909;47;20481;-59
2021/08/16 00:14:39;;;;;;;11.33;10.57;;;25.20;99.90;;;;;;2611986;54;20398;-59
2021/08/16 00:17:08;;;;;;;11.50;10.77;;;25.30;99.90;;;;;;2611271;54;20398;-59
2021/08/16 00:19:37;;;;;;;11.87;11.10;;;25.30;99.90;;;;;;2611647;54;20426;-58
2021/08/16 00:22:07;;;;;;;11.53;10.73;;;25.30;99.90;;;;;;2611365;47;20426;-59
2021/08/16 00:24:40;;;;;;;11.33;10.53;;;25.30;99.90;;;;;;2611926;54;20403;-59
2021/08/16 00:27:10;;;;;;;11.87;10.93;;;25.30;99.90;;;;;;2610883;54;20450;-58
2021/08/16 00:29:40;;;;;;;12.10;11.10;;;25.30;99.90;;;;;;2610743;51;20453;-58
2021/08/16 00:32:09;;;;;;;11.57;10.60;;;25.30;99.90;;;;;;2610507;47;20399;-58
2021/08/16 00:34:39;;;;;;;11.80;11.00;;;25.30;99.90;;;;;;2612583;54;20422;-58
2021/08/16 00:37:09;;;;;;;12.40;11.40;;;25.30;99.90;;;;;;2612039;54;20408;-58
2021/08/16 00:39:41;;;;;;;10.70;10.00;;;25.30;99.90;;;;;;2611906;39;21105;-59
2021/08/16 00:42:12;;;;;;;11.20;10.40;;;25.30;99.90;;;;;;2611237;54;20446;-58
2021/08/16 00:44:42;;;;;;;11.50;10.70;;;25.30;99.90;;;;;;2610864;39;20588;-58
2021/08/16 00:47:12;;;;;;;11.00;10.30;;;25.30;99.90;;;;;;2611528;39;21047;-59
2021/08/16 00:49:41;;;;;;;10.70;10.00;;;25.30;99.90;;;;;;2610203;54;20413;-59
2021/08/16 00:52:13;;;;;;;11.73;10.70;;;25.30;99.90;;;;;;2611088;54;20433;-58
2021/08/16 00:54:44;;;;;;;10.17;9.60;;;25.30;99.90;;;;;;2612740;54;20407;-58
2021/08/16 00:57:14;;;;;;;12.10;11.20;;;25.30;99.90;;;;;;2611452;54;20425;-59
2021/08/16 00:59:44;;;;;;;12.10;11.30;;;25.30;99.90;;;;;;2612522;54;20407;-58
2021/08/16 01:02:13;;;;;;;11.97;11.20;;;25.30;99.90;;;;;;2611948;47;20900;-58
2021/08/16 01:04:42;;;;;;;11.80;11.00;;;25.30;99.90;;;;;;2611949;54;21261;-58
2021/08/16 01:07:11;;;;;;;11.60;10.80;;;25.30;99.90;;;;;;2611630;54;20939;-58
2021/08/16 01:09:43;;;;;;;11.60;10.77;;;25.30;99.90;;;;;;2612090;54;20536;-58
2021/08/16 01:12:13;;;;;;;12.53;11.53;;;25.30;99.90;;;;;;2610722;54;20446;-59
2021/08/16 01:14:43;;;;;;;11.63;10.73;;;25.30;99.90;;;;;;2612269;51;20982;-58
2021/08/16 01:17:13;;;;;;;11.30;10.50;;;25.30;99.90;;;;;;2612575;54;21160;-58
2021/08/16 01:19:43;;;;;;;11.90;10.80;;;25.20;99.90;;;;;;2612421;54;20424;-57
2021/08/16 01:22:12;;;;;;;11.40;10.60;;;25.30;99.90;;;;;;2612722;54;20411;-59
2021/08/16 01:24:44;;;;;;;12.27;11.37;;;25.30;99.90;;;;;;2611762;39;21054;-57
2021/08/16 01:27:17;;;;;;;10.77;10.07;;;25.30;99.90;;;;;;2612583;54;20489;-58
2021/08/16 01:29:46;;;;;;;11.10;10.40;;;25.30;99.90;;;;;;2612411;54;20407;-58
2021/08/16 01:32:15;;;;;;;12.17;11.20;;;25.30;99.90;;;;;;2612365;39;20790;-58
2021/08/16 01:34:44;;;;;;;11.23;10.60;;;25.30;99.90;;;;;;2612991;54;21144;-58
2021/08/16 01:37:14;;;;;;;12.30;11.53;;;25.30;99.90;;;;;;2612635;54;20394;-58
2021/08/16 01:39:43;;;;;;;12.90;11.87;;;25.30;99.90;;;;;;2611803;54;20390;-58
2021/08/16 01:42:12;;;;;;;11.20;10.40;;;25.30;99.90;;;;;;2611882;39;20713;-58
2021/08/16 01:44:44;;;;;;;11.60;10.90;;;25.30;99.90;;;;;;2612441;47;20420;-58
2021/08/16 01:47:13;;;;;;;11.23;10.33;;;25.30;99.90;;;;;;2612954;54;20375;-57
2021/08/16 01:49:42;;;;;;;11.33;10.43;;;25.30;99.90;;;;;;2612102;54;20470;-59
2021/08/16 01:52:12;;;;;;;12.07;11.27;;;25.30;99.90;;;;;;2611948;54;20390;-57
2021/08/16 01:54:41;;;;;;;12.43;11.53;;;25.30;99.90;;;;;;2613224;54;20419;-58
2021/08/16 01:57:12;;;;;;;11.73;11.03;;;25.20;99.90;;;;;;2611950;54;20580;-58
2021/08/16 01:59:43;;;;;;;12.53;11.43;;;25.30;99.90;;;;;;2612335;54;20395;-58
2021/08/16 02:02:13;;;;;;;12.47;11.73;;;25.30;99.90;;;;;;2612108;54;20453;-58
2021/08/16 02:04:42;;;;;;;11.33;10.63;;;25.30;99.90;;;;;;2611673;54;20411;-59
2021/08/16 02:07:11;;;;;;;13.40;12.50;;;25.30;99.90;;;;;;2611858;54;20422;-59
2021/08/16 02:09:40;;;;;;;12.53;11.63;;;25.30;99.90;;;;;;2611690;54;21113;-58
2021/08/16 02:12:10;;;;;;;12.43;11.63;;;25.30;99.90;;;;;;2612394;54;20460;-58
2021/08/16 02:14:39;;;;;;;11.20;10.50;;;25.30;99.90;;;;;;2611560;54;20433;-58
2021/08/16 02:17:11;;;;;;;13.00;12.03;;;25.30;99.90;;;;;;2612899;54;20395;-58
2021/08/16 02:19:41;;;;;;;12.10;11.40;;;25.30;99.90;;;;;;2612576;54;20430;-57
2021/08/16 02:22:11;;;;;;;11.60;10.70;;;25.30;99.90;;;;;;2612493;54;20371;-59
2021/08/16 02:24:40;;;;;;;13.03;11.97;;;25.30;99.90;;;;;;2613270;47;20526;-59
2021/08/16 02:27:09;;;;;;;12.27;11.37;;;25.30;99.90;;;;;;2611326;54;20434;-58
2021/08/16 02:29:39;;;;;;;12.47;11.63;;;25.30;99.90;;;;;;2613335;54;20914;-58
2021/08/16 02:32:12;;;;;;;12.63;11.83;;;25.30;99.90;;;;;;2612568;54;20415;-59
2021/08/16 02:34:41;;;;;;;11.83;11.10;;;25.30;99.90;;;;;;2611639;39;20777;-58
2021/08/16 02:37:10;;;;;;;12.80;12.00;;;25.20;99.90;;;;;;2612059;54;20390;-59
2021/08/16 02:39:39;;;;;;;13.57;12.47;;;25.30;99.90;;;;;;2612147;39;20779;-58
2021/08/16 02:42:09;;;;;;;12.40;11.30;;;25.30;99.90;;;;;;2613006;39;21064;-59
2021/08/16 02:44:38;;;;;;;13.40;12.50;;;25.30;99.90;;;;;;2612387;54;20407;-59
2021/08/16 02:47:10;;;;;;;12.27;11.57;;;25.30;99.90;;;;;;2611651;54;20367;-58
2021/08/16 02:49:39;;;;;;;12.90;11.70;;;25.20;99.90;;;;;;2612775;54;20403;-59
2021/08/16 02:52:10;;;;;;;12.50;11.80;;;25.30;99.90;;;;;;2610056;54;20541;-58
2021/08/16 02:54:39;;;;;;;12.60;11.90;;;25.30;99.90;;;;;;2611343;54;20407;-58
2021/08/16 02:57:09;;;;;;;14.00;13.10;;;25.20;99.90;;;;;;2611627;54;20418;-59
2021/08/16 02:59:38;;;;;;;13.23;12.33;;;25.20;99.90;;;;;;2612000;54;20450;-57
2021/08/16 03:02:07;;;;;;;14.00;13.20;;;25.20;99.90;;;;;;2612179;54;20460;-58
2021/08/16 03:04:39;;;;;;;13.13;12.30;;;25.20;99.90;;;;;;2612193;54;20395;-59
2021/08/16 03:07:09;;;;;;;12.07;11.37;;;25.30;99.90;;;;;;2612009;54;20453;-58
2021/08/16 03:09:38;;;;;;;13.80;12.80;;;25.20;99.90;;;;;;2609733;54;20438;-59
2021/08/16 03:12:09;;;;;;;13.40;12.50;;;25.20;99.90;;;;;;2613056;54;20430;-58
2021/08/16 03:14:38;;;;;;;13.40;12.50;;;25.20;99.90;;;;;;2610956;54;21161;-59
2021/08/16 03:17:08;;;;;;;13.83;12.80;;;25.20;99.90;;;;;;2612098;47;20430;-58
2021/08/16 03:19:40;;;;;;;13.70;12.60;;;25.20;99.90;;;;;;2611485;54;20406;-58
2021/08/16 03:22:09;;;;;;;12.83;12.03;;;25.20;99.90;;;;;;2611918;47;21371;-58
2021/08/16 03:24:39;;;;;;;12.97;11.97;;;25.20;99.90;;;;;;2611178;54;20418;-58
2021/08/16 03:27:08;;;;;;;14.23;12.97;;;25.20;99.90;;;;;;2612108;31;20908;-58
2021/08/16 03:29:37;;;;;;;12.67;11.87;;;25.20;99.90;;;;;;2611263;54;20518;-59
2021/08/16 03:32:07;;;;;;;13.50;12.70;;;25.20;99.90;;;;;;2612945;51;20502;-59
2021/08/16 03:34:39;;;;;;;14.23;13.07;;;25.20;99.90;;;;;;2609186;54;20453;-59
2021/08/16 03:37:08;;;;;;;12.20;11.60;;;25.20;99.90;;;;;;2610706;54;20456;-59
2021/08/16 03:39:38;;;;;;;13.37;12.50;;;25.20;99.90;;;;;;2611047;54;20399;-59
2021/08/16 03:42:07;;;;;;;13.63;12.73;;;25.20;99.90;;;;;;2610961;54;20951;-57
2021/08/16 03:44:38;;;;;;;13.30;12.40;;;25.20;99.90;;;;;;2611266;47;20383;-58
2021/08/16 03:47:08;;;;;;;13.47;12.77;;;25.20;99.90;;;;;;2611320;54;20383;-58
2021/08/16 03:49:40;;;;;;;12.50;11.80;;;25.20;99.90;;;;;;2611318;54;20403;-58
2021/08/16 03:52:10;;;;;;;12.50;11.73;;;25.20;99.90;;;;;;2611630;54;20394;-58
2021/08/16 03:54:39;;;;;;;13.00;12.10;;;25.20;99.90;;;;;;2610116;54;20538;-59
2021/08/16 03:57:08;;;;;;;12.33;11.43;;;25.20;99.90;;;;;;2610727;54;20437;-59
2021/08/16 03:59:38;;;;;;;12.97;12.17;;;25.20;99.90;;;;;;2609775;54;20383;-58
2021/08/16 04:02:07;;;;;;;12.60;11.90;;;25.20;99.90;;;;;;2609059;46;20433;-59
2021/08/16 04:04:36;;;;;;;16.03;13.17;;;25.20;99.90;;;;;;2608503;54;20390;-59
2021/08/16 04:07:08;;;;;;;13.07;12.13;;;25.20;99.90;;;;;;2607983;54;20424;-58
2021/08/16 04:09:37;;;;;;;14.17;13.13;;;25.20;99.90;;;;;;2609283;54;21247;-59
2021/08/16 04:12:07;;;;;;;12.47;11.77;;;25.20;99.90;;;;;;2610213;54;20438;-59
2021/08/16 04:14:37;;;;;;;14.33;13.47;;;25.20;99.90;;;;;;2610777;39;20790;-58
2021/08/16 04:17:06;;;;;;;14.00;13.20;;;25.20;99.90;;;;;;2608726;54;20445;-58
2021/08/16 04:19:35;;;;;;;13.20;12.43;;;25.20;99.90;;;;;;2609117;39;20771;-59
2021/08/16 04:22:07;;;;;;;13.73;12.90;;;25.20;99.90;;;;;;2607036;47;20526;-56
2021/08/16 04:24:37;;;;;;;14.40;13.40;;;25.20;99.90;;;;;;2608239;54;20402;-57
2021/08/16 04:27:06;;;;;;;13.67;12.67;;;25.20;99.90;;;;;;2607542;54;20518;-56
2021/08/16 04:29:36;;;;;;;13.77;12.97;;;25.20;99.90;;;;;;2606552;54;20391;-57
2021/08/16 04:32:05;;;;;;;14.30;13.40;;;25.20;99.90;;;;;;2606959;54;21262;-56
2021/08/16 04:34:35;;;;;;;14.87;13.87;;;25.20;99.90;;;;;;2604752;47;20457;-56
2021/08/16 04:37:04;;;;;;;15.23;14.23;;;25.20;99.90;;;;;;2606568;48;20515;-55
2021/08/16 04:39:36;;;;;;;14.13;13.23;;;25.20;99.90;;;;;;2607814;54;20419;-56
2021/08/16 04:42:05;;;;;;;13.87;13.07;;;25.20;99.90;;;;;;2606399;39;20825;-56
2021/08/16 04:44:34;;;;;;;13.20;12.50;;;25.20;99.90;;;;;;2606402;54;21011;-56
2021/08/16 04:47:03;;;;;;;14.57;13.67;;;25.20;99.90;;;;;;2605754;54;20510;-56
2021/08/16 04:49:33;;;;;;;15.93;14.87;;;25.20;99.90;;;;;;2604797;54;20872;-57
2021/08/16 04:52:03;;;;;;;14.87;14.00;;;25.20;99.90;;;;;;2603171;54;20429;-56
2021/08/16 04:54:35;;;;;;;15.00;14.10;;;25.20;99.90;;;;;;2605131;54;20395;-57
2021/08/16 04:57:05;;;;;;;14.53;13.40;;;25.20;99.90;;;;;;2604865;54;20942;-56
2021/08/16 04:59:34;;;;;;;14.77;13.87;;;25.20;99.90;;;;;;2601920;54;20517;-57
2021/08/16 05:02:03;;;;;;;15.00;14.00;;;25.20;99.90;;;;;;2605339;51;20463;-57
2021/08/16 05:04:32;;;;;;;14.67;13.77;;;25.20;99.90;;;;;;2603463;54;20429;-57
2021/08/16 05:07:02;;;;;;;13.80;12.90;;;25.20;99.90;;;;;;2601840;39;20621;-56
2021/08/16 05:09:31;;;;;;;13.50;12.80;;;25.20;99.90;;;;;;2601476;54;20933;-57
2021/08/16 05:12:03;;;;;;;15.03;13.80;;;25.20;99.90;;;;;;2602108;39;20859;-57
2021/08/16 05:14:33;;;;;;;15.50;14.33;;;25.30;99.90;;;;;;2602306;39;21207;-57
2021/08/16 05:17:03;;;;;;;15.53;14.43;;;25.20;99.90;;;;;;2600509;51;20422;-57
2021/08/16 05:19:34;;;;;;;14.60;13.60;;;25.20;99.90;;;;;;2601506;47;20968;-57
2021/08/16 05:22:03;;;;;;;15.50;14.50;;;25.20;99.90;;;;;;2599867;47;20440;-57
2021/08/16 05:24:33;;;;;;;16.43;15.43;;;25.30;99.90;;;;;;2598366;47;20407;-57
2021/08/16 05:27:06;;;;;;;14.67;13.70;;;25.20;99.90;;;;;;2597097;54;20565;-57
2021/08/16 05:29:35;;;;;;;14.30;13.40;;;25.30;99.90;;;;;;2596733;54;20410;-57
2021/08/16 05:32:04;;;;;;;15.80;14.80;;;25.20;99.90;;;;;;2598968;54;20410;-57
2021/08/16 05:34:33;;;;;;;15.90;14.70;;;25.20;99.90;;;;;;2594693;54;20422;-58
2021/08/16 05:37:02;;;;;;;15.77;14.77;;;25.30;99.90;;;;;;2596206;39;20871;-56
2021/08/16 05:39:31;;;;;;;16.07;15.07;;;25.30;99.90;;;;;;2593596;54;20391;-57
2021/08/16 05:42:01;;;;;;;14.90;14.10;;;25.30;99.90;;;;;;2594465;54;20449;-56
2021/08/16 05:44:33;;;;;;;14.37;13.50;;;25.20;99.90;;;;;;2595223;39;21131;-55
2021/08/16 05:47:05;;;;;;;15.00;14.00;;;25.20;99.90;;;;;;2593801;54;20411;-56
2021/08/16 05:49:35;;;;;;;14.47;13.47;;;25.10;99.90;;;;;;2595179;54;20371;-57
2021/08/16 05:52:04;;;;;;;14.53;13.53;;;24.90;99.90;;;;;;2592933;54;20383;-56
2021/08/16 05:54:33;;;;;;;14.50;13.53;;;24.70;99.90;;;;;;2592165;39;20780;-55
2021/08/16 05:57:02;;;;;;;15.07;14.13;;;24.60;99.90;;;;;;2591892;54;20406;-57
2021/08/16 05:59:34;;;;;;;14.70;13.70;;;24.50;99.90;;;;;;2593180;54;20418;-55
2021/08/16 06:02:04;;;;;;;15.70;14.70;;;24.40;99.90;;;;;;2588610;54;20455;-55
2021/08/16 06:04:33;;;;;;;16.23;15.10;;;24.30;99.90;;;;;;2592492;54;20498;-56
2021/08/16 06:07:02;;;;;;;17.07;15.87;;;24.30;99.90;;;;;;2589824;54;20394;-57
2021/08/16 06:09:31;;;;;;;15.53;14.43;;;24.20;99.90;;;;;;2586459;54;21302;-56
2021/08/16 06:12:00;;;;;;;15.47;14.47;;;24.10;99.90;;;;;;2584549;54;20437;-56
2021/08/16 06:14:30;;;;;;;15.13;14.13;;;24.10;99.90;;;;;;2587743;54;20441;-56
2021/08/16 06:17:02;;;;;;;15.13;14.13;;;24.00;99.90;;;;;;2586504;54;20391;-57
2021/08/16 06:19:31;;;;;;;16.07;15.07;;;24.00;99.90;;;;;;2586149;54;20529;-56
2021/08/16 06:22:00;;;;;;;14.80;13.80;;;24.00;99.90;;;;;;2579424;54;20402;-56
2021/08/16 06:24:29;;;;;;;15.50;14.37;;;24.00;99.90;;;;;;2582850;54;20406;-56
2021/08/16 06:26:58;;;;;;;14.80;13.87;;;24.00;99.90;;;;;;2585310;54;21683;-56
2021/08/16 06:29:28;;;;;;;15.70;14.63;;;23.90;99.90;;;;;;2584187;54;21178;-56
2021/08/16 06:31:57;;;;;;;16.50;15.37;;;23.90;99.90;;;;;;2578178;54;20383;-57
2021/08/16 06:34:28;;;;;;;15.17;13.60;;;23.90;99.90;;;;;;2582219;54;20429;-56
2021/08/16 06:36:57;;;;;;;14.53;13.57;;;23.90;99.90;;;;;;2583533;39;20738;-56
2021/08/16 06:39:28;;;;;;;14.90;13.80;;;23.90;99.90;;;;;;2585706;54;20521;-56
2021/08/16 06:41:58;;;;;;;15.37;14.47;;;23.90;99.90;;;;;;2579810;54;20451;-57
2021/08/16 06:44:28;;;;;;;15.20;14.10;;;24.00;99.90;;;;;;2579121;54;20415;-57
2021/08/16 06:46:58;;;;;;;14.60;13.50;;;24.00;99.90;;;;;;2579940;54;20435;-57
2021/08/16 06:49:30;;;;;;;14.80;13.90;;;24.00;99.90;;;;;;2580619;54;20426;-57
2021/08/16 06:51:59;;;;;;;15.20;14.23;;;24.00;99.90;;;;;;2583730;54;20407;-57
2021/08/16 06:54:28;;;;;;;14.83;13.63;;;24.00;99.90;;;;;;2582510;54;20395;-53
2021/08/16 06:56:57;;;;;;;14.50;13.60;;;24.00;99.90;;;;;;2583237;54;21411;-55
2021/08/16 06:59:26;;;;;;;14.87;13.93;;;24.00;99.90;;;;;;2584732;54;20371;-54
2021/08/16 07:01:56;;;;;;;13.97;12.97;;;24.00;99.90;;;;;;2578721;54;20444;-56
2021/08/16 07:04:25;;;;;;;13.47;12.57;;;24.00;99.90;;;;;;2582094;54;20448;-57
2021/08/16 07:06:56;;;;;;;14.67;13.47;;;24.10;99.90;;;;;;2581203;54;20905;-57
2021/08/16 07:09:25;;;;;;;15.47;14.07;;;24.20;99.90;;;;;;2580890;54;20367;-57
2021/08/16 07:11:56;;;;;;;13.40;12.60;;;24.20;99.90;;;;;;2578146;50;20580;-57
2021/08/16 07:14:25;;;;;;;13.73;12.63;;;24.30;99.90;;;;;;2580380;54;20394;-57
2021/08/16 07:16:54;;;;;;;13.63;12.73;;;24.30;99.90;;;;;;2577292;54;21230;-57
2021/08/16 07:19:23;;;;;;;13.83;13.00;;;24.30;99.90;;;;;;2577252;54;20413;-57
2021/08/16 07:21:52;;;;;;;12.93;12.17;;;24.30;99.90;;;;;;2579293;54;20431;-57
2021/08/16 07:24:24;;;;;;;13.03;12.33;;;24.30;99.90;;;;;;2578151;54;20429;-57
2021/08/16 07:26:53;;;;;;;13.10;12.00;;;24.40;99.90;;;;;;2583814;54;20562;-56
2021/08/16 07:29:24;;;;;;;12.63;11.80;;;24.40;99.90;;;;;;2576484;54;20395;-57
2021/08/16 07:31:54;;;;;;;12.77;11.87;;;24.40;99.90;;;;;;2576055;54;20435;-57
2021/08/16 07:34:23;;;;;;;13.57;12.47;;;24.40;99.90;;;;;;2583207;54;20798;-53
2021/08/16 07:36:54;;;;;;;13.63;12.57;;;24.50;99.90;;;;;;2578129;54;20414;-56
2021/08/16 07:39:26;;;;;;;13.70;12.43;;;24.60;99.90;;;;;;2581189;54;20403;-56
2021/08/16 07:41:55;;;;;;;13.90;12.90;;;24.60;99.90;;;;;;2576644;54;20441;-56
2021/08/16 07:44:25;;;;;;;13.63;12.53;;;24.60;99.90;;;;;;2576663;54;20414;-57
2021/08/16 07:46:56;;;;;;;13.40;12.33;;;24.60;99.90;;;;;;2578822;47;20453;-57
2021/08/16 07:49:25;;;;;;;12.00;11.17;;;24.60;99.90;;;;;;2574432;54;20432;-57
2021/08/16 07:51:55;;;;;;;13.77;12.70;;;24.60;99.90;;;;;;2570422;54;20422;-55
2021/08/16 07:54:27;;;;;;;13.10;12.30;;;24.60;99.90;;;;;;2573996;54;21620;-55
2021/08/16 07:56:56;;;;;;;13.73;12.63;;;24.60;99.90;;;;;;2577616;54;20453;-56
2021/08/16 07:59:25;;;;;;;13.13;12.10;;;24.60;99.90;;;;;;2575404;54;20395;-56
2021/08/16 08:01:54;;;;;;;12.33;11.57;;;24.60;99.90;;;;;;2568958;54;20433;-54
2021/08/16 08:04:23;;;;;;;13.47;12.20;;;24.60;99.90;;;;;;2575048;54;20939;-57
2021/08/16 08:06:52;;;;;;;11.67;10.93;;;24.70;99.90;;;;;;2571236;54;20526;-56
2021/08/16 08:09:22;;;;;;;13.13;12.13;;;24.70;99.90;;;;;;2573696;47;20398;-57
2021/08/16 08:11:53;;;;;;;13.00;12.13;;;24.80;99.90;;;;;;2570911;54;20418;-57
2021/08/16 08:14:23;;;;;;;13.40;12.50;;;24.90;99.90;;;;;;2571498;54;20378;-57
2021/08/16 08:16:52;;;;;;;12.60;11.80;;;24.90;99.90;;;;;;2574676;54;20526;-56
2021/08/16 08:19:21;;;;;;;12.17;11.50;;;24.90;99.90;;;;;;2572516;39;20738;-57
2021/08/16 08:21:50;;;;;;;13.00;12.20;;;24.90;99.90;;;;;;2573763;54;20425;-57
2021/08/16 08:24:19;;;;;;;12.10;11.50;;;24.90;99.90;;;;;;2571201;51;20452;-57
2021/08/16 08:26:48;;;;;;;12.80;12.07;;;24.80;99.90;;;;;;2571722;54;21692;-57
2021/08/16 08:29:20;;;;;;;12.63;11.93;;;24.80;99.90;;;;;;2577669;54;20484;-56
2021/08/16 08:31:49;;;;;;;13.70;12.73;;;24.70;99.90;;;;;;2578321;54;20383;-55
2021/08/16 08:34:32;;;;;;;12.20;11.47;;;24.70;99.90;;;;;;2576030;39;21133;-57
2021/08/16 08:37:01;;;;;;;12.60;11.80;;;24.70;99.90;;;;;;2571605;54;20398;-56
2021/08/16 08:39:31;;;;;;;12.63;11.90;;;24.70;99.90;;;;;;2579635;54;20440;-57
2021/08/16 08:42:01;;;;;;;11.60;10.90;;;24.70;99.90;;;;;;2576684;54;20455;-56
2021/08/16 08:44:33;;;;;;;11.70;11.00;;;24.80;99.90;;;;;;2571556;54;20404;-54
2021/08/16 08:47:02;;;;;;;11.57;10.87;;;24.80;99.90;;;;;;2577621;54;21446;-53
2021/08/16 08:49:32;;;;;;;12.60;11.80;;;24.80;99.90;;;;;;2576503;54;20383;-55
2021/08/16 08:52:01;;;;;;;13.37;12.60;;;24.80;99.90;;;;;;2571935;54;20414;-56
2021/08/16 08:54:31;;;;;;;13.93;13.00;;;24.80;99.90;;;;;;2574734;54;20429;-56
2021/08/16 08:57:00;;;;;;;13.60;12.80;;;24.80;99.90;;;;;;2570156;54;21239;-56
2021/08/16 08:59:32;;;;;;;12.70;11.80;;;24.80;99.90;;;;;;2566581;54;20755;-56
2021/08/16 09:02:02;;;;;;;13.30;12.60;;;24.80;99.90;;;;;;2568274;54;20416;-55
2021/08/16 09:04:32;;;;;;;13.20;12.40;;;24.80;99.90;;;;;;2570161;54;20414;-57
2021/08/16 09:07:01;;;;;;;12.30;11.57;;;24.80;99.90;;;;;;2564335;54;20497;-57
2021/08/16 09:09:30;;;;;;;12.80;12.07;;;24.90;99.90;;;;;;2566635;54;20382;-57
2021/08/16 09:12:00;;;;;;;13.27;12.17;;;24.90;99.90;;;;;;2566481;39;20987;-56
2021/08/16 09:14:31;;;;;;;14.27;13.27;;;24.90;99.90;;;;;;2573224;39;21035;-57
2021/08/16 09:17:01;;;;;;;13.07;12.37;;;24.90;99.90;;;;;;2566989;54;20417;-56
2021/08/16 09:19:31;;;;;;;14.80;13.80;;;24.90;99.80;;;;;;2567178;54;21203;-56
2021/08/16 09:22:05;;;;;;;13.10;12.23;;;24.90;99.90;;;;;;2566266;54;20445;-56
2021/08/16 09:24:35;;;;;;;14.27;12.97;;;24.90;99.90;;;;;;2569126;54;20987;-56
2021/08/16 09:27:06;;;;;;;12.87;11.97;;;24.90;99.70;;;;;;2571104;39;20838;-56
2021/08/16 09:29:37;;;;;;;13.03;12.23;;;24.90;99.30;;;;;;2573356;54;20400;-57
2021/08/16 09:32:08;;;;;;;13.23;12.33;;;24.90;99.50;;;;;;2544215;54;20371;-56
2021/08/16 09:34:40;;;;;;;13.43;12.43;;;24.90;99.60;;;;;;2483468;39;20703;-57
2021/08/16 09:37:22;;;;;;;14.37;13.27;;;24.90;99.40;;;;;;2489304;54;21156;-56
2021/08/16 09:40:01;;;;;;;13.40;12.60;;;24.90;99.30;;;;;;2506828;54;20451;-56
2021/08/16 09:42:41;;;;;;;14.17;13.13;;;24.90;99.20;;;;;;2531545;54;20441;-55
2021/08/16 09:45:15;;;;;;;15.00;14.00;;;24.90;98.20;;;;;;2494405;54;20413;-57
2021/08/16 09:47:46;;;;;;;15.03;14.00;;;24.90;98.30;;;;;;2501295;39;20755;-55
2021/08/16 09:50:15;;;;;;;15.13;13.93;;;24.90;98.10;;;;;;2525801;54;20383;-56
2021/08/16 09:52:45;;;;;;;13.57;12.80;;;24.90;97.40;;;;;;2499610;54;20407;-56
2021/08/16 09:55:14;;;;;;;14.63;13.70;;;24.80;97.10;;;;;;2550669;54;20445;-56
2021/08/16 09:57:44;;;;;;;16.80;15.10;;;24.80;97.20;;;;;;2571975;54;20461;-55
2021/08/16 10:00:16;;;;;;;14.77;13.80;;;24.80;97.00;;;;;;2570251;54;20507;-56
2021/08/16 10:02:46;;;;;;;14.30;13.30;;;24.80;96.80;;;;;;2576520;39;20751;-56
2021/08/16 10:05:15;;;;;;;13.60;12.80;;;24.80;97.20;;;;;;2574952;54;20417;-57
2021/08/16 10:07:46;;;;;;;14.50;13.30;;;24.80;97.10;;;;;;2573726;39;20836;-56
2021/08/16 10:10:15;;;;;;;14.40;13.30;;;24.80;96.80;;;;;;2572911;54;20367;-57
2021/08/16 10:12:45;;;;;;;14.10;13.13;;;24.80;96.80;;;;;;2565178;54;20403;-56
2021/08/16 10:15:17;;;;;;;13.73;12.53;;;24.80;96.50;;;;;;2573354;39;20802;-57
2021/08/16 10:17:47;;;;;;;13.40;12.53;;;24.80;96.60;;;;;;2571451;54;20406;-56
2021/08/16 10:20:19;;;;;;;13.90;12.93;;;24.70;96.30;;;;;;2572974;54;20406;-56
2021/08/16 10:22:48;;;;;;;14.33;13.37;;;24.70;96.30;;;;;;2572164;51;20460;-57
2021/08/16 10:25:20;;;;;;;14.13;13.20;;;24.80;96.60;;;;;;2570774;54;20433;-57
2021/08/16 10:27:49;;;;;;;14.70;13.60;;;24.80;96.70;;;;;;2573750;47;20446;-56
2021/08/16 10:30:21;;;;;;;14.10;13.20;;;24.70;96.50;;;;;;2564812;54;20418;-57
2021/08/16 10:32:50;;;;;;;13.87;12.90;;;24.80;96.70;;;;;;2574502;54;20387;-56
2021/08/16 10:35:20;;;;;;;14.50;13.47;;;24.80;96.50;;;;;;2577196;54;20410;-57
2021/08/16 10:37:50;;;;;;;13.00;12.30;;;24.70;96.30;;;;;;2569035;54;20411;-57
2021/08/16 10:40:22;;;;;;;13.17;12.40;;;24.70;96.40;;;;;;2566907;39;20781;-56
2021/08/16 10:42:53;;;;;;;14.40;13.30;;;24.70;96.50;;;;;;2573194;54;20411;-56
2021/08/16 10:45:31;;;;;;;15.57;14.27;;;24.70;96.40;;;;;;2576232;54;20519;-56
2021/08/16 10:48:05;;;;;;;14.40;13.40;;;24.70;96.30;;;;;;2576676;39;21245;-57
2021/08/16 10:50:35;;;;;;;13.97;12.87;;;24.60;96.00;;;;;;2574555;50;20446;-57
2021/08/16 10:53:06;;;;;;;15.03;13.67;;;24.60;96.10;;;;;;2573236;54;20413;-57
2021/08/16 10:55:38;;;;;;;14.00;13.00;;;24.60;96.10;;;;;;2575699;54;20554;-57
2021/08/16 10:58:10;;;;;;;13.53;12.47;;;24.60;95.80;;;;;;2572831;54;20465;-57
2021/08/16 11:00:44;;;;;;;12.97;12.20;;;24.50;96.00;;;;;;2574637;47;20422;-57
2021/08/16 11:03:13;;;;;;;13.83;12.93;;;24.50;96.00;;;;;;2576594;39;20670;-56
2021/08/16 11:05:44;;;;;;;13.80;13.00;;;24.50;96.20;;;;;;2574637;54;21165;-56
2021/08/16 11:08:13;;;;;;;13.63;12.93;;;24.50;96.20;;;;;;2571028;39;20661;-53
2021/08/16 11:10:45;;;;;;;14.10;13.00;;;24.50;96.40;;;;;;2576143;54;20405;-57
2021/08/16 11:13:17;;;;;;;13.80;13.00;;;24.60;96.50;;;;;;2582544;54;20937;-56
2021/08/16 11:15:50;;;;;;;13.53;12.60;;;24.60;96.40;;;;;;2577009;39;21121;-56
2021/08/16 11:18:21;;;;;;;13.03;12.13;;;24.60;96.10;;;;;;2575723;54;20687;-56
2021/08/16 11:20:59;;;;;;;12.83;12.13;;;24.60;95.90;;;;;;2580044;54;21546;-54
2021/08/16 11:23:29;;;;;;;17.83;12.77;;;24.60;96.00;;;;;;2579137;54;20410;-56
2021/08/16 11:26:00;;;;;;;13.67;12.43;;;24.60;96.00;;;;;;2572459;54;20402;-57
2021/08/16 11:28:30;;;;;;;12.00;11.20;;;24.50;96.10;;;;;;2577756;54;20597;-57
2021/08/16 11:31:07;;;;;;;11.97;11.23;;;24.50;95.90;;;;;;2579121;47;20422;-56
2021/08/16 11:33:37;;;;;;;13.93;12.83;;;24.50;95.90;;;;;;2578656;54;20423;-59
2021/08/16 11:36:09;;;;;;;13.10;12.20;;;24.50;96.00;;;;;;2573549;54;20434;-59
2021/08/16 11:38:43;;;;;;;14.00;13.10;;;24.60;96.40;;;;;;2577561;47;20386;-58
2021/08/16 11:41:14;;;;;;;14.40;13.50;;;24.70;96.50;;;;;;2579837;54;20422;-58
2021/08/16 11:43:44;;;;;;;13.60;12.90;;;24.70;96.70;;;;;;2574801;54;20493;-58
2021/08/16 11:46:20;;;;;;;14.53;13.70;;;24.80;96.80;;;;;;2574536;54;20366;-59
2021/08/16 11:48:53;;;;;;;14.17;13.27;;;24.80;96.90;;;;;;2575578;39;20803;-58
2021/08/16 11:51:23;;;;;;;13.97;12.90;;;24.80;97.10;;;;;;2576411;54;20423;-58
2021/08/16 11:53:54;;;;;;;14.90;13.87;;;24.90;97.20;;;;;;2574420;54;20457;-59
2021/08/16 11:56:23;;;;;;;14.87;14.00;;;24.90;97.30;;;;;;2571917;54;21572;-57
2021/08/16 11:58:58;;;;;;;14.90;13.83;;;24.90;97.30;;;;;;2574126;54;20433;-59
2021/08/16 12:01:31;;;;;;;13.90;13.00;;;24.90;97.40;;;;;;2575148;54;20454;-58
2021/08/16 12:04:05;;;;;;;14.27;13.37;;;25.00;97.50;;;;;;2571196;54;20907;-58
2021/08/16 12:06:37;;;;;;;12.93;12.13;;;25.00;97.50;;;;;;2573997;54;21661;-58
2021/08/16 12:09:09;;;;;;;13.93;13.13;;;25.00;97.60;;;;;;2578016;47;20406;-57
2021/08/16 12:11:41;;;;;;;13.90;13.00;;;25.00;97.60;;;;;;2573605;54;20419;-56
2021/08/16 12:14:10;;;;;;;14.67;13.70;;;25.00;97.60;;;;;;2570831;54;20513;-58
2021/08/16 12:16:43;;;;;;;14.00;13.20;;;25.00;97.70;;;;;;2573431;54;20395;-58
2021/08/16 12:19:20;;;;;;;13.43;12.73;;;25.00;97.60;;;;;;2575709;39;20757;-57
2021/08/16 12:21:52;;;;;;;14.83;13.83;;;25.00;97.90;;;;;;2571879;39;20807;-58
2021/08/16 12:24:23;;;;;;;13.83;13.03;;;25.00;97.60;;;;;;2568956;54;20394;-58
2021/08/16 12:27:02;;;;;;;14.50;13.47;;;25.00;97.70;;;;;;2573706;54;20402;-55
2021/08/16 12:29:31;;;;;;;13.97;13.07;;;25.00;97.70;;;;;;2574213;54;20422;-57
2021/08/16 12:32:03;;;;;;;14.77;13.87;;;25.00;97.70;;;;;;2579639;54;20375;-58
2021/08/16 12:34:36;;;;;;;15.70;14.30;;;25.00;97.80;;;;;;2576457;54;20903;-57
2021/08/16 12:37:06;;;;;;;15.03;13.93;;;25.10;97.90;;;;;;2576014;54;20410;-57
2021/08/16 12:39:36;;;;;;;14.63;13.80;;;25.00;97.80;;;;;;2576825;54;20444;-58
2021/08/16 12:42:09;;;;;;;14.53;13.63;;;25.00;97.90;;;;;;2569054;39;20602;-54
2021/08/16 12:44:43;;;;;;;14.77;13.87;;;25.10;98.00;;;;;;2567815;39;20714;-57